createdAt,value
2023-02-23T00:01:24.681Z,10.97
2023-02-23T00:03:52.457Z,10.47
2023-02-23T00:06:20.170Z,11.00
2023-02-23T00:08:52.418Z,11.37
2023-02-23T00:11:21.000Z,10.60
2023-02-23T00:13:52.652Z,10.93
2023-02-23T00:16:21.201Z,10.30
2023-02-23T00:18:50.648Z,10.33
2023-02-23T00:21:19.893Z,9.97
2023-02-23T00:23:52.072Z,10.80
2023-02-23T00:26:23.401Z,11.40
2023-02-23T00:28:53.836Z,11.07
2023-02-23T00:31:25.769Z,11.53
2023-02-23T00:33:56.967Z,10.93
2023-02-23T00:36:25.529Z,10.77
2023-02-23T00:38:56.973Z,10.00
2023-02-23T00:41:30.670Z,11.60
2023-02-23T00:43:58.894Z,11.30
2023-02-23T00:46:29.174Z,10.30
2023-02-23T00:48:57.577Z,11.27
2023-02-23T00:51:32.680Z,11.47
2023-02-23T00:54:00.787Z,11.60
2023-02-23T00:56:28.526Z,11.43
2023-02-23T00:58:56.684Z,10.40
2023-02-23T01:01:26.728Z,10.40
2023-02-23T01:03:54.396Z,11.07
2023-02-23T01:06:21.801Z,11.30
2023-02-23T01:08:50.469Z,11.13
2023-02-23T01:11:21.224Z,11.73
2023-02-23T01:13:48.974Z,12.10
2023-02-23T01:16:18.048Z,11.50
2023-02-23T01:18:45.881Z,11.90
2023-02-23T01:21:19.841Z,11.80
2023-02-23T01:23:47.556Z,11.47
2023-02-23T01:26:20.898Z,11.23
2023-02-23T01:28:51.898Z,11.63
2023-02-23T01:31:20.081Z,11.97
2023-02-23T01:33:47.603Z,11.33
2023-02-23T01:36:15.057Z,12.20
2023-02-23T01:38:42.412Z,11.57
2023-02-23T01:41:09.787Z,12.30
2023-02-23T01:43:37.467Z,11.77
2023-02-23T01:46:04.925Z,12.70
2023-02-23T01:48:34.803Z,11.43
2023-02-23T01:51:22.907Z,12.33
2023-02-23T01:53:54.787Z,12.20
2023-02-23T01:56:25.101Z,12.33
2023-02-23T01:58:54.772Z,11.90
2023-02-23T02:01:22.660Z,11.83
2023-02-23T02:03:56.911Z,12.17
2023-02-23T02:06:28.702Z,11.10
2023-02-23T02:08:58.414Z,12.33
2023-02-23T02:11:30.633Z,12.13
2023-02-23T02:14:00.404Z,11.40
2023-02-23T02:16:28.960Z,12.07
2023-02-23T02:19:16.794Z,12.17
2023-02-23T02:21:47.086Z,11.73
2023-02-23T02:24:32.578Z,12.83
2023-02-23T02:27:10.588Z,12.43
2023-02-23T02:29:41.029Z,12.87
2023-02-23T02:32:22.833Z,11.90
2023-02-23T02:34:56.538Z,12.20
2023-02-23T02:37:33.336Z,12.00
2023-02-23T02:40:16.358Z,11.63
2023-02-23T02:42:55.382Z,12.13
2023-02-23T02:45:26.293Z,11.67
2023-02-23T02:48:14.132Z,12.17
2023-02-23T02:50:55.687Z,12.40
2023-02-23T02:53:42.024Z,12.23
2023-02-23T02:56:10.524Z,11.83
2023-02-23T02:58:39.052Z,12.17
2023-02-23T03:01:28.694Z,13.13
2023-02-23T03:04:14.761Z,11.87
2023-02-23T03:07:13.275Z,12.03
2023-02-23T03:09:59.312Z,11.70
2023-02-23T03:13:04.377Z,12.00
2023-02-23T03:15:50.762Z,12.60
2023-02-23T03:18:46.188Z,12.43
2023-02-23T03:24:59.573Z,12.47
2023-02-23T03:27:45.802Z,12.47
2023-02-23T03:30:34.752Z,12.13
2023-02-23T03:33:25.090Z,12.10
2023-02-23T03:36:11.356Z,12.33
2023-02-23T03:39:04.747Z,11.90
2023-02-23T03:41:53.622Z,12.60
2023-02-23T03:44:47.337Z,12.40
2023-02-23T03:47:35.218Z,12.33
2023-02-23T03:50:23.798Z,12.87
2023-02-23T03:53:12.315Z,12.43
2023-02-23T03:56:00.152Z,13.23
2023-02-23T03:58:59.235Z,12.90
2023-02-23T04:01:45.959Z,12.23
2023-02-23T04:04:32.239Z,12.43
2023-02-23T04:07:20.256Z,12.93
2023-02-23T04:10:06.281Z,12.63
2023-02-23T04:13:12.451Z,12.00
2023-02-23T04:15:41.944Z,12.27
2023-02-23T04:18:13.079Z,12.57
2023-02-23T04:20:40.408Z,12.63
2023-02-23T04:23:07.681Z,12.73
2023-02-23T04:25:35.668Z,12.77
2023-02-23T04:28:03.611Z,13.23
2023-02-23T04:30:30.948Z,13.07
2023-02-23T04:32:59.209Z,13.03
2023-02-23T04:35:28.063Z,12.43
2023-02-23T04:37:55.726Z,13.37
2023-02-23T04:40:24.384Z,12.93
2023-02-23T04:42:51.911Z,13.43
2023-02-23T04:45:19.749Z,12.80
2023-02-23T04:47:47.229Z,12.53
2023-02-23T04:50:14.552Z,12.80
2023-02-23T04:52:41.817Z,13.83
2023-02-23T04:57:59.097Z,13.50
2023-02-23T05:00:27.062Z,13.40
2023-02-23T05:02:54.307Z,14.27
2023-02-23T05:05:21.600Z,13.67
2023-02-23T05:07:49.008Z,13.73
2023-02-23T05:10:16.242Z,13.07
2023-02-23T05:12:43.608Z,13.67
2023-02-23T05:15:11.147Z,13.67
2023-02-23T05:17:40.390Z,14.30
2023-02-23T05:20:08.077Z,14.63
2023-02-23T05:22:35.531Z,14.03
2023-02-23T05:25:04.224Z,13.23
2023-02-23T05:27:32.753Z,13.57
2023-02-23T05:30:00.272Z,23.57
2023-02-23T05:32:28.047Z,14.53
2023-02-23T05:34:55.391Z,14.53
2023-02-23T05:37:23.107Z,13.43
2023-02-23T05:39:50.663Z,13.13
2023-02-23T05:42:18.127Z,13.60
2023-02-23T05:44:45.485Z,14.30
2023-02-23T05:47:12.915Z,15.37
2023-02-23T05:49:40.156Z,14.10
2023-02-23T05:52:07.494Z,15.07
2023-02-23T05:54:34.919Z,14.13
2023-02-23T05:57:02.274Z,14.60
2023-02-23T05:59:29.503Z,14.90
2023-02-23T06:01:56.844Z,14.53
2023-02-23T06:04:24.263Z,14.40
2023-02-23T06:06:52.171Z,15.63
2023-02-23T06:09:19.443Z,15.77
2023-02-23T06:11:46.760Z,15.20
2023-02-23T06:14:14.102Z,15.20
2023-02-23T06:16:41.454Z,14.53
2023-02-23T06:19:09.632Z,14.50
2023-02-23T06:21:36.850Z,14.90
2023-02-23T06:24:04.457Z,15.17
2023-02-23T06:26:32.310Z,15.93
2023-02-23T06:28:59.900Z,15.07
2023-02-23T06:31:27.214Z,16.70
2023-02-23T06:33:54.668Z,15.00
2023-02-23T06:36:23.707Z,14.30
2023-02-23T06:38:51.175Z,14.97
2023-02-23T06:41:18.681Z,15.43
2023-02-23T06:43:46.149Z,15.53
2023-02-23T06:46:13.730Z,16.43
2023-02-23T06:48:41.349Z,15.07
2023-02-23T06:51:08.638Z,15.27
2023-02-23T06:53:36.198Z,14.87
2023-02-23T06:56:04.012Z,15.37
2023-02-23T06:58:31.620Z,14.57
2023-02-23T07:00:59.568Z,15.97
2023-02-23T07:03:27.067Z,16.17
2023-02-23T07:05:54.438Z,15.50
2023-02-23T07:08:21.663Z,15.73
2023-02-23T07:10:48.918Z,15.60
2023-02-23T07:13:16.493Z,16.63
2023-02-23T07:15:44.089Z,15.23
2023-02-23T07:18:11.320Z,16.33
2023-02-23T07:20:38.902Z,16.40
2023-02-23T07:23:06.177Z,15.53
2023-02-23T07:25:33.441Z,14.80
2023-02-23T07:28:00.728Z,16.60
2023-02-23T07:30:28.046Z,15.40
2023-02-23T07:32:55.302Z,16.40
2023-02-23T07:35:22.701Z,15.67
2023-02-23T07:37:50.131Z,15.73
2023-02-23T07:40:17.830Z,15.87
2023-02-23T07:42:45.077Z,16.60
2023-02-23T07:45:12.434Z,16.00
2023-02-23T07:47:39.713Z,16.17
2023-02-23T07:50:12.633Z,16.27
2023-02-23T07:52:41.147Z,16.43
2023-02-23T07:55:09.549Z,16.43
2023-02-23T07:57:37.842Z,15.87
2023-02-23T08:00:06.010Z,15.77
2023-02-23T08:02:53.678Z,16.50
2023-02-23T08:05:20.988Z,16.23
2023-02-23T08:07:49.233Z,15.77
2023-02-23T08:10:16.581Z,15.63
2023-02-23T08:12:43.869Z,15.70
2023-02-23T08:15:11.647Z,16.37
2023-02-23T08:17:57.522Z,16.20
2023-02-23T08:20:24.984Z,16.13
2023-02-23T08:22:55.659Z,15.77
2023-02-23T08:25:23.182Z,15.97
2023-02-23T08:27:53.411Z,15.27
2023-02-23T08:30:21.665Z,15.57
2023-02-23T08:32:50.429Z,15.27
2023-02-23T08:35:20.228Z,15.80
2023-02-23T08:37:47.788Z,15.53
2023-02-23T08:40:15.909Z,15.20
2023-02-23T08:42:44.152Z,13.90
2023-02-23T08:45:11.919Z,14.60
2023-02-23T08:47:39.209Z,14.93
2023-02-23T08:50:06.975Z,15.33
2023-02-23T08:52:34.583Z,14.43
2023-02-23T08:55:02.026Z,14.83
2023-02-23T08:57:29.312Z,14.80
2023-02-23T08:59:56.578Z,15.03
2023-02-23T09:02:24.706Z,14.27
2023-02-23T09:04:54.020Z,15.27
2023-02-23T09:07:23.109Z,14.17
2023-02-23T09:09:56.886Z,13.73
2023-02-23T09:12:24.332Z,13.30
2023-02-23T09:14:53.736Z,14.83
2023-02-23T09:17:23.069Z,14.20
2023-02-23T09:19:51.274Z,14.33
2023-02-23T09:22:18.676Z,14.03
2023-02-23T09:24:46.002Z,14.50
2023-02-23T09:27:14.219Z,13.53
2023-02-23T09:29:42.389Z,14.73
2023-02-23T09:32:09.826Z,13.03
2023-02-23T09:34:37.736Z,13.87
2023-02-23T09:37:05.595Z,12.37
2023-02-23T09:39:38.452Z,14.10
2023-02-23T09:42:08.260Z,13.80
2023-02-23T09:44:38.460Z,13.00
2023-02-23T09:47:11.640Z,14.27
2023-02-23T09:49:40.980Z,13.70
2023-02-23T09:52:16.122Z,13.53
2023-02-23T09:54:43.803Z,13.43
2023-02-23T09:57:34.070Z,13.17
2023-02-23T10:00:01.440Z,13.37
2023-02-23T10:03:05.286Z,13.30
2023-02-23T10:05:35.162Z,12.87
2023-02-23T10:08:22.647Z,13.13
2023-02-23T10:11:00.509Z,12.63
2023-02-23T10:13:46.514Z,13.50
2023-02-23T10:16:23.280Z,14.40
2023-02-23T10:18:50.479Z,14.20
2023-02-23T10:21:20.865Z,13.30
2023-02-23T10:23:58.195Z,13.67
2023-02-23T10:26:31.961Z,12.47
2023-02-23T10:28:59.956Z,13.83
2023-02-23T10:31:27.555Z,12.10
2023-02-23T10:33:56.883Z,11.97
2023-02-23T10:36:37.856Z,13.07
2023-02-23T10:39:07.199Z,13.47
2023-02-23T10:41:35.402Z,14.57
2023-02-23T10:44:15.933Z,12.43
2023-02-23T10:46:44.899Z,11.50
2023-02-23T10:49:18.171Z,12.23
2023-02-23T10:51:45.790Z,12.50
2023-02-23T10:54:31.948Z,12.53
2023-02-23T10:56:59.498Z,12.43
2023-02-23T10:59:27.442Z,11.80
2023-02-23T11:02:02.004Z,11.80
2023-02-23T11:04:30.995Z,11.83
2023-02-23T11:07:07.800Z,11.90
2023-02-23T11:09:49.548Z,10.97
2023-02-23T11:12:21.930Z,11.40
2023-02-23T11:14:53.905Z,10.87
2023-02-23T11:17:37.720Z,11.13
2023-02-23T11:20:23.632Z,11.17
2023-02-23T11:22:52.273Z,10.87
2023-02-23T11:25:26.402Z,11.63
2023-02-23T11:27:57.087Z,11.90
2023-02-23T11:30:29.614Z,9.97
2023-02-23T11:32:58.226Z,11.00
2023-02-23T11:35:27.040Z,9.97
2023-02-23T11:37:54.715Z,10.40
2023-02-23T11:40:28.106Z,10.37
2023-02-23T11:43:16.685Z,9.90
2023-02-23T11:45:49.573Z,9.60
2023-02-23T11:48:26.068Z,9.73
2023-02-23T11:50:54.413Z,9.67
2023-02-23T11:53:45.101Z,9.57
2023-02-23T11:56:12.662Z,9.33
2023-02-23T11:58:40.139Z,9.83
2023-02-23T12:01:12.282Z,9.47
2023-02-23T12:03:47.759Z,9.37
2023-02-23T12:06:30.271Z,8.37
2023-02-23T12:09:18.654Z,9.37
2023-02-23T12:12:06.746Z,9.40
2023-02-23T12:14:53.036Z,9.67
2023-02-23T12:17:26.077Z,9.47
2023-02-23T12:19:56.507Z,10.67
2023-02-23T12:22:26.695Z,9.17
2023-02-23T12:25:02.891Z,9.57
2023-02-23T12:27:35.714Z,10.30
2023-02-23T12:30:18.702Z,9.37
2023-02-23T12:32:46.078Z,9.77
2023-02-23T12:35:13.291Z,10.40
2023-02-23T12:37:43.647Z,8.60
2023-02-23T12:40:17.266Z,9.83
2023-02-23T12:43:03.205Z,9.00
2023-02-23T12:45:40.383Z,9.13
2023-02-23T12:48:20.071Z,9.30
2023-02-23T12:50:55.753Z,9.33
2023-02-23T12:53:35.145Z,9.57
2023-02-23T12:56:08.090Z,9.60
2023-02-23T12:58:45.622Z,9.87
2023-02-23T13:01:22.665Z,10.30
2023-02-23T13:03:50.217Z,9.40
2023-02-23T13:06:23.487Z,10.63
2023-02-23T13:09:05.997Z,9.37
2023-02-23T13:11:52.549Z,10.23
2023-02-23T13:14:33.292Z,10.60
2023-02-23T13:17:06.763Z,9.97
2023-02-23T13:19:49.770Z,10.10
2023-02-23T13:22:30.624Z,10.40
2023-02-23T13:24:59.909Z,10.30
2023-02-23T13:27:38.309Z,10.33
2023-02-23T13:30:05.907Z,10.40
2023-02-23T13:32:34.490Z,9.77
2023-02-23T13:35:02.938Z,9.80
2023-02-23T13:37:32.228Z,9.93
2023-02-23T13:40:02.590Z,9.77
2023-02-23T13:42:30.945Z,9.93
2023-02-23T13:44:58.436Z,9.77
2023-02-23T13:47:40.614Z,10.70
2023-02-23T13:50:22.738Z,10.47
2023-02-23T13:52:50.435Z,10.73
2023-02-23T13:55:29.470Z,9.77
2023-02-23T13:58:05.500Z,9.63
2023-02-23T14:00:34.268Z,9.30
2023-02-23T14:03:06.614Z,10.33
2023-02-23T14:05:42.801Z,10.50
2023-02-23T14:08:20.990Z,10.70
2023-02-23T14:10:48.416Z,10.23
2023-02-23T14:13:15.912Z,11.30
2023-02-23T14:15:45.868Z,11.07
2023-02-23T14:18:22.007Z,11.00
2023-02-23T14:21:09.549Z,10.07
2023-02-23T14:23:37.016Z,10.30
2023-02-23T14:26:30.321Z,11.27
2023-02-23T14:29:20.020Z,11.30
2023-02-23T14:32:04.398Z,10.93
2023-02-23T14:34:50.149Z,10.43
2023-02-23T14:37:25.460Z,9.33
2023-02-23T14:39:54.855Z,8.87
2023-02-23T14:42:24.426Z,9.90
2023-02-23T14:44:52.814Z,8.67
2023-02-23T14:47:21.799Z,10.07
2023-02-23T14:49:50.894Z,10.10
2023-02-23T14:52:20.852Z,9.93
2023-02-23T14:54:48.473Z,10.50
2023-02-23T14:57:21.068Z,10.57
2023-02-23T14:59:54.699Z,11.87
2023-02-23T15:02:24.564Z,12.80
2023-02-23T15:04:51.959Z,12.50
2023-02-23T15:07:25.331Z,14.43
2023-02-23T15:09:56.396Z,14.40
2023-02-23T15:12:27.142Z,14.87
2023-02-23T15:14:57.747Z,15.53
2023-02-23T15:17:26.987Z,15.00
2023-02-23T15:20:14.436Z,15.80
2023-02-23T15:22:44.362Z,16.77
2023-02-23T15:25:26.135Z,17.77
2023-02-23T15:27:55.917Z,17.23
2023-02-23T15:30:23.515Z,17.97
2023-02-23T15:33:00.057Z,18.47
2023-02-23T15:35:28.303Z,17.43
2023-02-23T15:38:05.874Z,18.07
2023-02-23T15:40:43.816Z,18.40
2023-02-23T15:43:12.508Z,18.73
2023-02-23T15:45:42.840Z,19.37
2023-02-23T15:48:18.379Z,18.73
2023-02-23T15:50:57.758Z,18.67
2023-02-23T15:53:25.239Z,18.63
2023-02-23T15:55:55.813Z,19.57
2023-02-23T15:58:25.753Z,16.60
2023-02-23T16:01:06.026Z,17.70
2023-02-23T16:03:35.572Z,16.40
2023-02-23T16:06:05.234Z,19.20
2023-02-23T16:08:33.359Z,18.63
2023-02-23T16:11:13.342Z,17.97
2023-02-23T16:13:44.605Z,17.17
2023-02-23T16:16:19.043Z,18.03
2023-02-23T16:18:53.554Z,18.23
2023-02-23T16:21:23.634Z,17.80
2023-02-23T16:23:55.226Z,18.97
2023-02-23T16:26:29.052Z,18.33
2023-02-23T16:29:01.262Z,20.00
2023-02-23T16:31:51.928Z,19.13
2023-02-23T16:34:39.972Z,19.07
2023-02-23T16:37:17.982Z,19.57
2023-02-23T16:39:45.376Z,18.63
2023-02-23T16:42:21.644Z,19.27
2023-02-23T16:44:49.089Z,18.67
2023-02-23T16:47:25.372Z,19.90
2023-02-23T16:49:52.737Z,20.10
2023-02-23T16:52:22.761Z,19.93
2023-02-23T16:54:54.526Z,19.93
2023-02-23T16:57:27.924Z,21.27
2023-02-23T16:59:55.723Z,21.80
2023-02-23T17:02:23.046Z,21.10
2023-02-23T17:04:51.689Z,21.67
2023-02-23T17:07:23.105Z,20.17
2023-02-23T17:09:51.428Z,23.30
2023-02-23T17:12:21.499Z,21.27
2023-02-23T17:14:49.531Z,20.93
2023-02-23T17:17:17.713Z,21.00
2023-02-23T17:19:46.749Z,24.00
2023-02-23T17:22:14.127Z,22.83
2023-02-23T17:24:42.003Z,23.30
2023-02-23T17:27:09.834Z,22.77
2023-02-23T17:29:37.413Z,21.33
2023-02-23T17:32:05.166Z,20.47
2023-02-23T17:34:32.762Z,22.53
2023-02-23T17:37:00.051Z,21.47
2023-02-23T17:39:28.178Z,21.47
2023-02-23T17:41:56.074Z,22.07
2023-02-23T17:44:23.428Z,25.17
2023-02-23T17:46:50.780Z,37.40
2023-02-23T17:49:18.129Z,22.43
2023-02-23T17:51:45.612Z,22.00
2023-02-23T17:54:14.073Z,21.40
2023-02-23T17:56:41.313Z,21.73
2023-02-23T17:59:08.736Z,20.03
2023-02-23T18:01:36.246Z,21.43
2023-02-23T18:04:04.180Z,20.40
2023-02-23T18:06:31.769Z,21.40
2023-02-23T18:08:59.207Z,21.90
2023-02-23T18:11:26.864Z,22.67
2023-02-23T18:13:54.486Z,22.90
2023-02-23T18:16:23.488Z,23.23
2023-02-23T18:18:50.849Z,22.60
2023-02-23T18:21:20.364Z,24.50
2023-02-23T18:23:48.125Z,23.60
2023-02-23T18:26:20.534Z,24.30
2023-02-23T18:28:47.901Z,22.80
2023-02-23T18:31:20.401Z,23.67
2023-02-23T18:33:54.764Z,24.23
2023-02-23T18:36:22.074Z,24.83
2023-02-23T18:38:50.141Z,26.70
2023-02-23T18:41:17.631Z,26.30
2023-02-23T18:43:45.390Z,26.73
2023-02-23T18:46:13.949Z,27.80
2023-02-23T18:48:41.593Z,26.80
2023-02-23T18:51:14.058Z,26.90
2023-02-23T18:53:41.620Z,28.43
2023-02-23T18:56:09.733Z,27.03
2023-02-23T18:58:37.058Z,29.50
2023-02-23T19:01:10.952Z,29.43
2023-02-23T19:03:38.655Z,28.13
2023-02-23T19:06:12.468Z,29.93
2023-02-23T19:08:39.768Z,29.17
2023-02-23T19:11:07.092Z,52.90
2023-02-23T19:13:34.465Z,32.97
2023-02-23T19:16:05.872Z,30.40
2023-02-23T19:18:33.506Z,30.57
2023-02-23T19:21:00.790Z,29.00
2023-02-23T19:23:28.323Z,30.30
2023-02-23T19:25:55.702Z,30.50
2023-02-23T19:28:23.142Z,29.57
2023-02-23T19:30:50.466Z,30.07
2023-02-23T19:33:17.913Z,30.13
2023-02-23T19:35:45.430Z,32.33
2023-02-23T19:38:12.757Z,30.27
2023-02-23T19:40:42.614Z,29.83
2023-02-23T19:43:13.891Z,29.97
2023-02-23T19:45:46.347Z,31.30
2023-02-23T19:48:15.874Z,31.33
2023-02-23T19:50:48.065Z,32.87
2023-02-23T19:53:15.947Z,30.87
2023-02-23T19:55:44.994Z,32.13
2023-02-23T19:58:13.053Z,30.63
2023-02-23T20:00:40.738Z,32.03
2023-02-23T20:03:08.128Z,30.67
2023-02-23T20:05:45.201Z,32.13
2023-02-23T20:08:12.859Z,31.80
2023-02-23T20:10:42.680Z,30.70
2023-02-23T20:13:10.956Z,30.10
2023-02-23T20:15:38.226Z,32.73
2023-02-23T20:18:07.285Z,31.67
2023-02-23T20:20:35.922Z,32.17
2023-02-23T20:23:07.802Z,30.33
2023-02-23T20:25:36.036Z,32.00
2023-02-23T20:28:03.484Z,32.77
2023-02-23T20:30:30.926Z,32.47
2023-02-23T20:32:58.301Z,32.43
2023-02-23T20:35:26.302Z,33.33
2023-02-23T20:38:14.129Z,31.97
2023-02-23T20:40:42.015Z,32.70
2023-02-23T20:43:09.226Z,33.23
2023-02-23T20:45:36.479Z,34.20
2023-02-23T20:48:04.926Z,33.13
2023-02-23T20:50:34.030Z,32.33
2023-02-23T20:53:02.413Z,33.63
2023-02-23T20:55:30.459Z,33.63
2023-02-23T20:57:58.108Z,34.00
2023-02-23T21:00:30.674Z,34.07
2023-02-23T21:02:58.666Z,35.50
2023-02-23T21:05:27.086Z,34.43
2023-02-23T21:07:58.049Z,36.00
2023-02-23T21:10:25.445Z,34.40
2023-02-23T21:12:53.094Z,35.73
2023-02-23T21:15:20.867Z,35.00
2023-02-23T21:17:50.380Z,34.10
2023-02-23T21:20:19.962Z,36.53
2023-02-23T21:22:51.788Z,35.03
2023-02-23T21:25:20.327Z,34.00
2023-02-23T21:27:49.042Z,34.60
2023-02-23T21:30:19.468Z,36.83
2023-02-23T21:32:47.967Z,38.10
2023-02-23T21:35:16.280Z,33.70
2023-02-23T21:37:43.765Z,33.13
2023-02-23T21:40:12.810Z,33.53
2023-02-23T21:42:40.876Z,34.23
2023-02-23T21:45:09.103Z,34.30
2023-02-23T21:47:37.328Z,32.67
2023-02-23T21:50:05.002Z,34.57
2023-02-23T21:52:33.098Z,32.47
2023-02-23T21:55:03.853Z,36.33
2023-02-23T21:57:33.271Z,40.87
2023-02-23T22:00:00.748Z,38.70
2023-02-23T22:02:30.564Z,38.90
2023-02-23T22:04:58.341Z,41.83
2023-02-23T22:07:29.180Z,41.83
2023-02-23T22:09:56.642Z,42.93
2023-02-23T22:12:24.009Z,42.97
2023-02-23T22:14:51.655Z,42.50
2023-02-23T22:17:20.353Z,40.43
2023-02-23T22:19:50.767Z,42.97
2023-02-23T22:22:20.171Z,43.43
2023-02-23T22:24:48.938Z,42.63
2023-02-23T22:27:17.066Z,44.33
2023-02-23T22:29:44.721Z,45.43
2023-02-23T22:32:12.288Z,43.20
2023-02-23T22:34:39.861Z,44.50
2023-02-23T22:37:07.534Z,44.97
2023-02-23T22:39:34.853Z,44.77
2023-02-23T22:42:09.204Z,44.87
2023-02-23T22:44:38.970Z,44.97
2023-02-23T22:47:07.365Z,44.77
2023-02-23T22:49:34.786Z,43.63
2023-02-23T22:52:02.204Z,45.40
2023-02-23T22:54:31.363Z,43.37
2023-02-23T22:56:59.249Z,44.40
2023-02-23T22:59:28.511Z,44.87
2023-02-23T23:01:56.442Z,46.97
2023-02-23T23:04:24.249Z,45.27
2023-02-23T23:06:51.587Z,47.63
2023-02-23T23:09:21.039Z,44.43
2023-02-23T23:11:51.607Z,41.90
2023-02-23T23:14:23.146Z,43.17
2023-02-23T23:17:09.262Z,43.93
2023-02-23T23:19:39.698Z,44.13
2023-02-23T23:22:13.160Z,43.27
2023-02-23T23:24:45.847Z,42.90
2023-02-23T23:27:19.782Z,42.20
2023-02-23T23:29:50.097Z,42.63
2023-02-23T23:32:18.837Z,42.93
2023-02-23T23:34:48.062Z,41.13
2023-02-23T23:37:19.309Z,41.90
2023-02-23T23:39:46.552Z,40.97
2023-02-23T23:42:14.011Z,39.67
2023-02-23T23:44:41.267Z,39.67
2023-02-23T23:47:08.806Z,38.77
2023-02-23T23:49:37.873Z,38.37
2023-02-23T23:52:05.809Z,36.17
2023-02-23T23:54:37.487Z,34.67
2023-02-23T23:57:05.763Z,35.73
2023-02-23T23:59:33.935Z,36.47
